Eastsound, WA (98245)

9:25 AM PST on February 14, 2016 (GMT -0800)
Orcas Island | | Change Station
CLOSE
Current Station
Airport
Location: Eastsound,
Elevation: 30 ft
Nearby Weather Stations

Elev 30 ft 48.71 °N, 122.91 °W | Updated 10 minutes ago

Partly Cloudy
Partly Cloudy
48 °F
Feels Like 48 °F
N
9
Wind Variable Wind from South
Gusts 17 mph

Today
High -- | Low -- °F
--% Chance of Precip.
Yesterday
High -- | Low -- °F
Precip. -- in
Pressure 30.05 in
Visibility 9.0 miles
Clouds Few 4800 ft
Few 6000 ft
Dew Point 46 °F
Humidity 93%
Rainfall 0.04 in
Snow Depth Not available.
7:21 AM 5:30 PM
Waxing Crescent, 43% visible
METAR KORS 141715Z AUTO 19008G15KT 030V040 9SM FEW048 FEW060 09/08 A3005 RMK AO2
Pressure 30.05 in
Visibility 9.0 miles
Clouds Few 4800 ft
Few 6000 ft
Dew Point 46 °F
Humidity 93%
Rainfall 0.04 in
Snow Depth Not available.
7:21 AM 5:30 PM
Waxing Crescent, 43% visible
METAR KORS 141715Z AUTO 19008G15KT 030V040 9SM FEW048 FEW060 09/08 A3005 RMK AO2

10-Day Weather Forecast

Almanac

Astronomy

Feb. 14, 2016 Rise Set
Actual Time
Civil Twilight
Nautical Twilight
Astronomical Twilight
Moon
Length of Visible Light
Length of Day
Tomorrow will be .
, % of the Moon is Illuminated

Today's Extremes

State Highs State Lows

Community

WunderPhotos

Upload Photos

1,892,856 photos uploaded!

WunderBlog® & News

Nearby

Air Quality

  Air Quality AQ Index Pollutant
Not available.

Snow Depth

Station Depth Elevation

Earthquake Activity

City Distance Mag. Time & Date
Minimum magnitude displayed is 2.5.

Coastal Water Temperatures

Place Temperature

Stations

Nearby Weather Stations

Station Location Temp. Windchill Dew Point Humidity Wind Precip. Elev Updated Type
                   

Watches & Warnings

There are currently no watches in effect.